sensor_id;sensor_type;location;lat;lon;timestamp;pressure;altitude;pressure_sealevel;temperature;humidity
65659;BME280;60181;53.258;6.932;2023-02-02T00:03:12;101831.82;;;14.22;64.12
65659;BME280;60181;53.258;6.932;2023-02-02T00:07:16;101836.49;;;14.22;64.12
65659;BME280;60181;53.258;6.932;2023-02-02T00:11:20;101840.36;;;14.21;64.04
65659;BME280;60181;53.258;6.932;2023-02-02T00:15:24;101843.98;;;14.21;63.99
65659;BME280;60181;53.258;6.932;2023-02-02T00:19:28;101846.70;;;14.21;63.91
65659;BME280;60181;53.258;6.932;2023-02-02T00:23:32;101847.94;;;14.21;63.88
65659;BME280;60181;53.258;6.932;2023-02-02T00:27:36;101849.14;;;14.21;63.96
65659;BME280;60181;53.258;6.932;2023-02-02T00:31:40;101851.36;;;14.20;63.97
65659;BME280;60181;53.258;6.932;2023-02-02T00:35:44;101854.83;;;14.20;64.37
65659;BME280;60181;53.258;6.932;2023-02-02T00:39:48;101858.95;;;14.20;64.08
65659;BME280;60181;53.258;6.932;2023-02-02T00:43:52;101862.08;;;14.20;64.11
65659;BME280;60181;53.258;6.932;2023-02-02T00:47:56;101864.51;;;14.19;64.10
65659;BME280;60181;53.258;6.932;2023-02-02T00:52:00;101867.16;;;14.19;64.05
65659;BME280;60181;53.258;6.932;2023-02-02T00:56:04;101869.26;;;14.18;64.09
65659;BME280;60181;53.258;6.932;2023-02-02T01:00:10;101870.83;;;14.18;64.14
65659;BME280;60181;53.258;6.932;2023-02-02T01:04:12;101871.95;;;14.17;64.18
65659;BME280;60181;53.258;6.932;2023-02-02T01:08:16;101873.43;;;14.17;64.16
65659;BME280;60181;53.258;6.932;2023-02-02T01:12:20;101874.63;;;14.16;64.15
65659;BME280;60181;53.258;6.932;2023-02-02T01:16:24;101876.61;;;14.15;64.20
65659;BME280;60181;53.258;6.932;2023-02-02T01:20:28;101878.42;;;14.16;64.14
65659;BME280;60181;53.258;6.932;2023-02-02T01:24:32;101880.89;;;14.16;62.71
65659;BME280;60181;53.258;6.932;2023-02-02T01:28:36;101884.40;;;14.09;62.29
65659;BME280;60181;53.258;6.932;2023-02-02T01:32:40;101886.40;;;13.99;62.11
65659;BME280;60181;53.258;6.932;2023-02-02T01:36:44;101890.11;;;13.91;62.38
65659;BME280;60181;53.258;6.932;2023-02-02T01:40:49;101891.55;;;13.84;61.94
65659;BME280;60181;53.258;6.932;2023-02-02T01:45:06;101893.55;;;13.78;61.48
65659;BME280;60181;53.258;6.932;2023-02-02T01:49:00;101897.05;;;13.72;61.72
65659;BME280;60181;53.258;6.932;2023-02-02T01:53:00;101898.63;;;13.67;61.42
65659;BME280;60181;53.258;6.932;2023-02-02T01:57:07;101900.05;;;13.62;61.01
65659;BME280;60181;53.258;6.932;2023-02-02T02:01:08;101901.26;;;13.57;61.05
65659;BME280;60181;53.258;6.932;2023-02-02T02:05:12;101904.08;;;13.53;61.00
65659;BME280;60181;53.258;6.932;2023-02-02T02:09:16;101906.84;;;13.49;60.87
65659;BME280;60181;53.258;6.932;2023-02-02T02:13:21;101909.37;;;13.46;60.80
65659;BME280;60181;53.258;6.932;2023-02-02T02:17:29;101912.09;;;13.43;60.74
65659;BME280;60181;53.258;6.932;2023-02-02T02:29:45;101911.60;;;13.35;60.80
65659;BME280;60181;53.258;6.932;2023-02-02T02:33:43;101910.24;;;13.33;60.90
65659;BME280;60181;53.258;6.932;2023-02-02T02:37:53;101909.26;;;13.32;61.02
65659;BME280;60181;53.258;6.932;2023-02-02T02:41:48;101907.90;;;13.30;60.84
65659;BME280;60181;53.258;6.932;2023-02-02T02:45:52;101909.92;;;13.29;61.01
65659;BME280;60181;53.258;6.932;2023-02-02T02:49:56;101912.02;;;13.28;60.89
65659;BME280;60181;53.258;6.932;2023-02-02T02:54:00;101913.84;;;13.26;60.90
65659;BME280;60181;53.258;6.932;2023-02-02T02:58:08;101916.02;;;13.25;60.82
65659;BME280;60181;53.258;6.932;2023-02-02T03:10:19;101925.12;;;13.21;60.85
65659;BME280;60181;53.258;6.932;2023-02-02T03:14:20;101929.41;;;13.19;60.89
65659;BME280;60181;53.258;6.932;2023-02-02T03:18:24;101932.62;;;13.17;60.88
65659;BME280;60181;53.258;6.932;2023-02-02T03:22:28;101935.17;;;13.14;61.16
65659;BME280;60181;53.258;6.932;2023-02-02T03:26:32;101937.56;;;13.12;60.97
65659;BME280;60181;53.258;6.932;2023-02-02T03:30:36;101938.26;;;13.11;60.98
65659;BME280;60181;53.258;6.932;2023-02-02T03:34:40;101938.72;;;13.10;60.96
65659;BME280;60181;53.258;6.932;2023-02-02T03:38:44;101939.09;;;13.09;61.05
65659;BME280;60181;53.258;6.932;2023-02-02T03:42:48;101940.69;;;13.08;61.04
65659;BME280;60181;53.258;6.932;2023-02-02T03:46:52;101941.23;;;13.06;60.98
65659;BME280;60181;53.258;6.932;2023-02-02T03:50:56;101941.60;;;13.06;61.18
65659;BME280;60181;53.258;6.932;2023-02-02T03:55:00;101941.76;;;13.05;61.29
65659;BME280;60181;53.258;6.932;2023-02-02T03:59:04;101942.75;;;13.05;61.29
65659;BME280;60181;53.258;6.932;2023-02-02T04:03:07;101944.06;;;13.05;61.36
65659;BME280;60181;53.258;6.932;2023-02-02T04:07:12;101945.17;;;13.05;61.43
65659;BME280;60181;53.258;6.932;2023-02-02T04:11:16;101946.91;;;13.04;61.63
65659;BME280;60181;53.258;6.932;2023-02-02T04:15:19;101946.90;;;13.04;61.74
65659;BME280;60181;53.258;6.932;2023-02-02T04:19:24;101946.70;;;13.03;61.89
65659;BME280;60181;53.258;6.932;2023-02-02T04:23:28;101946.20;;;13.03;61.92
65659;BME280;60181;53.258;6.932;2023-02-02T04:27:31;101945.09;;;13.04;61.91
65659;BME280;60181;53.258;6.932;2023-02-02T04:31:35;101945.59;;;13.07;61.96
65659;BME280;60181;53.258;6.932;2023-02-02T04:35:41;101946.23;;;13.11;62.20
65659;BME280;60181;53.258;6.932;2023-02-02T04:39:43;101947.19;;;13.13;62.58
65659;BME280;60181;53.258;6.932;2023-02-02T04:43:47;101948.13;;;13.13;62.33
65659;BME280;60181;53.258;6.932;2023-02-02T04:47:51;101950.22;;;13.15;62.33
65659;BME280;60181;53.258;6.932;2023-02-02T04:51:55;101952.11;;;13.16;62.12
65659;BME280;60181;53.258;6.932;2023-02-02T04:56:11;101953.83;;;13.16;62.09
65659;BME280;60181;53.258;6.932;2023-02-02T05:00:04;101955.77;;;13.16;61.99
65659;BME280;60181;53.258;6.932;2023-02-02T05:04:09;101959.23;;;13.16;61.43
65659;BME280;60181;53.258;6.932;2023-02-02T05:08:11;101961.41;;;13.14;61.27
65659;BME280;60181;53.258;6.932;2023-02-02T05:12:15;101963.34;;;13.13;60.96
65659;BME280;60181;53.258;6.932;2023-02-02T05:16:20;101965.16;;;13.13;61.01
65659;BME280;60181;53.258;6.932;2023-02-02T05:20:23;101966.60;;;13.13;60.92
65659;BME280;60181;53.258;6.932;2023-02-02T05:24:27;101968.98;;;13.12;60.82
65659;BME280;60181;53.258;6.932;2023-02-02T05:28:31;101972.48;;;13.11;60.81
65659;BME280;60181;53.258;6.932;2023-02-02T05:32:35;101974.87;;;13.09;60.70
65659;BME280;60181;53.258;6.932;2023-02-02T05:36:39;101976.88;;;13.08;60.55
65659;BME280;60181;53.258;6.932;2023-02-02T05:40:43;101977.79;;;13.06;60.43
65659;BME280;60181;53.258;6.932;2023-02-02T05:44:47;101979.32;;;13.04;60.41
65659;BME280;60181;53.258;6.932;2023-02-02T05:48:51;101981.29;;;13.03;60.35
65659;BME280;60181;53.258;6.932;2023-02-02T05:52:56;101984.28;;;13.01;60.07
65659;BME280;60181;53.258;6.932;2023-02-02T05:56:59;101987.70;;;13.00;60.26
65659;BME280;60181;53.258;6.932;2023-02-02T06:01:03;101991.49;;;13.00;60.19
65659;BME280;60181;53.258;6.932;2023-02-02T06:05:08;101993.83;;;13.01;60.07
65659;BME280;60181;53.258;6.932;2023-02-02T06:09:11;101996.92;;;13.00;60.24
65659;BME280;60181;53.258;6.932;2023-02-02T06:13:15;102000.33;;;12.99;60.16
65659;BME280;60181;53.258;6.932;2023-02-02T06:17:19;102004.32;;;12.97;60.21
65659;BME280;60181;53.258;6.932;2023-02-02T06:21:23;102007.03;;;12.96;60.18
65659;BME280;60181;53.258;6.932;2023-02-02T06:25:27;102008.59;;;12.95;60.11
65659;BME280;60181;53.258;6.932;2023-02-02T06:29:31;102010.36;;;12.96;60.81
65659;BME280;60181;53.258;6.932;2023-02-02T06:33:36;102012.62;;;12.98;59.42
65659;BME280;60181;53.258;6.932;2023-02-02T06:37:39;102015.37;;;12.95;59.56
65659;BME280;60181;53.258;6.932;2023-02-02T06:41:43;102019.44;;;12.90;59.53
65659;BME280;60181;53.258;6.932;2023-02-02T06:45:47;102023.35;;;12.85;59.41
65659;BME280;60181;53.258;6.932;2023-02-02T06:49:51;102026.47;;;12.81;59.06
65659;BME280;60181;53.258;6.932;2023-02-02T06:53:55;102029.33;;;12.76;58.91
65659;BME280;60181;53.258;6.932;2023-02-02T06:57:59;102033.15;;;12.71;58.93
65659;BME280;60181;53.258;6.932;2023-02-02T07:02:03;102036.63;;;12.67;58.89
65659;BME280;60181;53.258;6.932;2023-02-02T07:06:14;102040.95;;;12.64;58.75
65659;BME280;60181;53.258;6.932;2023-02-02T07:10:11;102045.12;;;12.62;58.76
65659;BME280;60181;53.258;6.932;2023-02-02T07:14:15;102048.63;;;12.59;58.69
65659;BME280;60181;53.258;6.932;2023-02-02T07:18:19;102052.72;;;12.56;58.66
65659;BME280;60181;53.258;6.932;2023-02-02T07:22:23;102056.51;;;12.57;58.78
65659;BME280;60181;53.258;6.932;2023-02-02T07:26:27;102061.11;;;12.59;58.89
65659;BME280;60181;53.258;6.932;2023-02-02T07:30:31;102065.72;;;12.59;58.87
65659;BME280;60181;53.258;6.932;2023-02-02T07:34:38;102069.21;;;12.58;58.87
65659;BME280;60181;53.258;6.932;2023-02-02T07:38:39;102073.94;;;12.57;58.78
65659;BME280;60181;53.258;6.932;2023-02-02T07:42:46;102078.49;;;12.55;58.78
65659;BME280;60181;53.258;6.932;2023-02-02T07:46:47;102083.04;;;12.54;58.75
65659;BME280;60181;53.258;6.932;2023-02-02T07:50:51;102088.39;;;12.54;58.67
65659;BME280;60181;53.258;6.932;2023-02-02T07:54:55;102093.94;;;12.53;58.63
65659;BME280;60181;53.258;6.932;2023-02-02T07:58:59;102098.69;;;12.53;58.69
65659;BME280;60181;53.258;6.932;2023-02-02T08:03:03;102104.38;;;12.53;58.70
65659;BME280;60181;53.258;6.932;2023-02-02T08:07:07;102109.59;;;12.52;58.68
65659;BME280;60181;53.258;6.932;2023-02-02T08:11:12;102114.64;;;12.53;58.70
65659;BME280;60181;53.258;6.932;2023-02-02T08:15:15;102119.25;;;12.53;58.78
65659;BME280;60181;53.258;6.932;2023-02-02T08:19:19;102123.60;;;12.53;58.75
65659;BME280;60181;53.258;6.932;2023-02-02T08:23:23;102127.79;;;12.53;58.71
65659;BME280;60181;53.258;6.932;2023-02-02T08:27:27;102132.72;;;12.53;58.75
65659;BME280;60181;53.258;6.932;2023-02-02T08:31:33;102137.78;;;12.54;58.67
65659;BME280;60181;53.258;6.932;2023-02-02T08:35:41;102142.22;;;12.55;58.74
65659;BME280;60181;53.258;6.932;2023-02-02T08:39:39;102146.54;;;12.55;58.76
65659;BME280;60181;53.258;6.932;2023-02-02T08:43:43;102151.72;;;12.55;58.79
65659;BME280;60181;53.258;6.932;2023-02-02T08:47:47;102156.61;;;12.56;58.84
65659;BME280;60181;53.258;6.932;2023-02-02T08:51:51;102161.55;;;12.57;58.84
65659;BME280;60181;53.258;6.932;2023-02-02T08:55:58;102166.52;;;12.57;58.92
65659;BME280;60181;53.258;6.932;2023-02-02T08:59:59;102171.46;;;12.58;58.89
65659;BME280;60181;53.258;6.932;2023-02-02T09:04:07;102176.59;;;12.58;58.96
65659;BME280;60181;53.258;6.932;2023-02-02T09:08:07;102181.37;;;12.59;59.06
65659;BME280;60181;53.258;6.932;2023-02-02T09:12:11;102185.08;;;12.61;59.17
65659;BME280;60181;53.258;6.932;2023-02-02T09:16:16;102188.14;;;12.87;60.91
65659;BME280;60181;53.258;6.932;2023-02-02T09:20:19;102192.39;;;13.20;59.30
65659;BME280;60181;53.258;6.932;2023-02-02T09:24:23;102195.93;;;13.55;59.94
65659;BME280;60181;53.258;6.932;2023-02-02T09:28:27;102198.86;;;13.74;60.61
65659;BME280;60181;53.258;6.932;2023-02-02T09:32:31;102200.14;;;13.78;61.29
65659;BME280;60181;53.258;6.932;2023-02-02T09:36:35;102202.40;;;13.77;61.38
65659;BME280;60181;53.258;6.932;2023-02-02T09:40:39;102205.00;;;13.74;61.45
65659;BME280;60181;53.258;6.932;2023-02-02T09:44:53;102208.04;;;13.71;61.43
65659;BME280;60181;53.258;6.932;2023-02-02T09:52:56;102215.99;;;13.66;61.50
65659;BME280;60181;53.258;6.932;2023-02-02T09:56:55;102221.70;;;13.64;61.43
65659;BME280;60181;53.258;6.932;2023-02-02T10:01:03;102225.95;;;13.63;61.43
65659;BME280;60181;53.258;6.932;2023-02-02T10:05:22;102229.94;;;13.63;61.50
65659;BME280;60181;53.258;6.932;2023-02-02T10:13:15;102237.81;;;13.62;61.48
65659;BME280;60181;53.258;6.932;2023-02-02T10:17:35;102242.08;;;13.62;61.52
65659;BME280;60181;53.258;6.932;2023-02-02T10:21:25;102246.53;;;13.62;61.53
65659;BME280;60181;53.258;6.932;2023-02-02T10:25:25;102249.33;;;13.62;61.57
65659;BME280;60181;53.258;6.932;2023-02-02T10:37:44;102261.16;;;13.63;61.64
65659;BME280;60181;53.258;6.932;2023-02-02T10:41:40;102264.23;;;13.63;61.70
65659;BME280;60181;53.258;6.932;2023-02-02T10:45:43;102266.96;;;13.63;61.71
65659;BME280;60181;53.258;6.932;2023-02-02T10:49:47;102269.59;;;13.64;61.76
65659;BME280;60181;53.258;6.932;2023-02-02T10:53:52;102273.25;;;13.64;61.78
65659;BME280;60181;53.258;6.932;2023-02-02T11:01:59;102279.85;;;13.65;61.86
65659;BME280;60181;53.258;6.932;2023-02-02T11:06:03;102282.81;;;13.65;61.91
65659;BME280;60181;53.258;6.932;2023-02-02T11:10:07;102286.05;;;13.65;61.96
65659;BME280;60181;53.258;6.932;2023-02-02T11:14:15;102289.84;;;13.65;62.02
65659;BME280;60181;53.258;6.932;2023-02-02T11:18:28;102293.34;;;13.65;62.07
65659;BME280;60181;53.258;6.932;2023-02-02T11:22:23;102297.55;;;13.65;62.16
65659;BME280;60181;53.258;6.932;2023-02-02T11:26:23;102300.72;;;13.64;62.16
65659;BME280;60181;53.258;6.932;2023-02-02T11:30:29;102304.33;;;13.63;62.25
65659;BME280;60181;53.258;6.932;2023-02-02T11:34:31;102307.09;;;13.63;62.24
65659;BME280;60181;53.258;6.932;2023-02-02T11:38:35;102310.30;;;13.63;62.27
65659;BME280;60181;53.258;6.932;2023-02-02T11:42:40;102313.34;;;13.62;62.31
65659;BME280;60181;53.258;6.932;2023-02-02T11:46:43;102315.23;;;13.62;62.29
65659;BME280;60181;53.258;6.932;2023-02-02T11:50:48;102317.30;;;13.62;62.33
65659;BME280;60181;53.258;6.932;2023-02-02T11:54:52;102318.45;;;13.62;62.33
65659;BME280;60181;53.258;6.932;2023-02-02T11:58:55;102317.72;;;13.63;62.36
65659;BME280;60181;53.258;6.932;2023-02-02T12:02:59;102316.52;;;13.63;62.39
65659;BME280;60181;53.258;6.932;2023-02-02T12:07:21;102315.33;;;13.64;62.37
65659;BME280;60181;53.258;6.932;2023-02-02T12:11:07;102313.23;;;13.65;62.39
65659;BME280;60181;53.258;6.932;2023-02-02T12:15:20;102312.53;;;13.66;62.42
65659;BME280;60181;53.258;6.932;2023-02-02T12:19:25;102311.96;;;13.67;62.48
65659;BME280;60181;53.258;6.932;2023-02-02T12:23:26;102311.17;;;13.68;62.58
65659;BME280;60181;53.258;6.932;2023-02-02T12:27:46;102310.19;;;13.68;62.64
65659;BME280;60181;53.258;6.932;2023-02-02T12:43:39;102308.50;;;13.69;62.72
65659;BME280;60181;53.258;6.932;2023-02-02T12:52:08;102307.26;;;13.69;62.78
65659;BME280;60181;53.258;6.932;2023-02-02T12:56:03;102305.05;;;13.69;62.82
65659;BME280;60181;53.258;6.932;2023-02-02T13:04:01;102296.56;;;13.69;62.75
65659;BME280;60181;53.258;6.932;2023-02-02T13:08:05;102292.49;;;13.70;62.78
65659;BME280;60181;53.258;6.932;2023-02-02T13:12:07;102287.87;;;13.70;62.80
65659;BME280;60181;53.258;6.932;2023-02-02T13:16:11;102284.95;;;13.71;62.79
65659;BME280;60181;53.258;6.932;2023-02-02T13:20:17;102284.30;;;13.71;62.84
65659;BME280;60181;53.258;6.932;2023-02-02T13:24:20;102283.89;;;13.72;62.83
65659;BME280;60181;53.258;6.932;2023-02-02T13:32:33;102286.69;;;13.72;62.88
65659;BME280;60181;53.258;6.932;2023-02-02T13:36:31;102286.60;;;13.71;62.94
65659;BME280;60181;53.258;6.932;2023-02-02T13:40:38;102286.84;;;13.71;62.95
65659;BME280;60181;53.258;6.932;2023-02-02T13:44:39;102286.77;;;13.71;62.97
65659;BME280;60181;53.258;6.932;2023-02-02T14:00:55;102290.06;;;13.71;63.02
65659;BME280;60181;53.258;6.932;2023-02-02T14:05:02;102289.89;;;13.71;63.07
65659;BME280;60181;53.258;6.932;2023-02-02T14:09:03;102289.32;;;13.71;63.13
65659;BME280;60181;53.258;6.932;2023-02-02T14:13:16;102287.34;;;13.71;63.14
65659;BME280;60181;53.258;6.932;2023-02-02T14:33:36;102275.94;;;13.70;63.27
65659;BME280;60181;53.258;6.932;2023-02-02T14:37:33;102276.51;;;13.70;63.27
65659;BME280;60181;53.258;6.932;2023-02-02T14:41:47;102280.59;;;13.69;63.31
65659;BME280;60181;53.258;6.932;2023-02-02T14:45:39;102283.80;;;13.69;63.34
65659;BME280;60181;53.258;6.932;2023-02-02T14:49:43;102286.19;;;13.69;63.37
65659;BME280;60181;53.258;6.932;2023-02-02T14:53:50;102285.99;;;13.68;63.40
65659;BME280;60181;53.258;6.932;2023-02-02T14:57:54;102284.99;;;13.68;63.43
65659;BME280;60181;53.258;6.932;2023-02-02T15:06:02;102284.95;;;13.67;63.74
65659;BME280;60181;53.258;6.932;2023-02-02T15:10:03;102285.82;;;13.70;63.45
65659;BME280;60181;53.258;6.932;2023-02-02T15:14:09;102285.49;;;13.72;63.49
65659;BME280;60181;53.258;6.932;2023-02-02T15:18:17;102286.98;;;13.72;63.53
65659;BME280;60181;53.258;6.932;2023-02-02T15:22:29;102287.39;;;13.72;63.62
65659;BME280;60181;53.258;6.932;2023-02-02T15:26:20;102289.33;;;13.72;63.68
65659;BME280;60181;53.258;6.932;2023-02-02T15:30:23;102290.14;;;13.71;63.70
65659;BME280;60181;53.258;6.932;2023-02-02T15:38:32;102296.94;;;13.70;63.76
65659;BME280;60181;53.258;6.932;2023-02-02T15:42:41;102300.72;;;13.70;63.76
65659;BME280;60181;53.258;6.932;2023-02-02T15:46:38;102303.11;;;13.70;63.80
65659;BME280;60181;53.258;6.932;2023-02-02T15:50:43;102304.97;;;13.69;63.81
65659;BME280;60181;53.258;6.932;2023-02-02T15:54:53;102305.70;;;13.69;63.84
65659;BME280;60181;53.258;6.932;2023-02-02T15:58:52;102305.70;;;13.69;63.82
65659;BME280;60181;53.258;6.932;2023-02-02T16:06:58;102310.44;;;13.68;63.88
65659;BME280;60181;53.258;6.932;2023-02-02T16:11:07;102311.42;;;13.67;63.90
65659;BME280;60181;53.258;6.932;2023-02-02T16:15:09;102312.30;;;13.67;63.92
65659;BME280;60181;53.258;6.932;2023-02-02T16:19:13;102313.36;;;13.67;63.95
65659;BME280;60181;53.258;6.932;2023-02-02T16:23:15;102313.61;;;13.67;63.99
65659;BME280;60181;53.258;6.932;2023-02-02T16:27:20;102312.99;;;13.68;63.81
65659;BME280;60181;53.258;6.932;2023-02-02T16:31:23;102313.53;;;13.69;63.86
65659;BME280;60181;53.258;6.932;2023-02-02T16:35:34;102312.28;;;13.69;63.91
65659;BME280;60181;53.258;6.932;2023-02-02T16:39:30;102311.80;;;13.69;63.94
65659;BME280;60181;53.258;6.932;2023-02-02T16:43:35;102309.70;;;13.68;63.96
65659;BME280;60181;53.258;6.932;2023-02-02T16:47:38;102309.12;;;13.68;63.97
65659;BME280;60181;53.258;6.932;2023-02-02T16:51:42;102309.20;;;13.68;63.98
65659;BME280;60181;53.258;6.932;2023-02-02T16:55:46;102308.29;;;13.67;63.99
65659;BME280;60181;53.258;6.932;2023-02-02T16:59:51;102307.79;;;13.67;63.98
65659;BME280;60181;53.258;6.932;2023-02-02T17:03:54;102307.64;;;13.67;63.98
65659;BME280;60181;53.258;6.932;2023-02-02T17:07:59;102306.53;;;13.67;63.98
65659;BME280;60181;53.258;6.932;2023-02-02T17:16:09;102305.16;;;13.67;64.00
65659;BME280;60181;53.258;6.932;2023-02-02T17:20:11;102303.59;;;13.68;64.01
65659;BME280;60181;53.258;6.932;2023-02-02T17:24:15;102303.69;;;13.68;64.01
65659;BME280;60181;53.258;6.932;2023-02-02T17:28:19;102301.87;;;13.68;64.02
65659;BME280;60181;53.258;6.932;2023-02-02T17:32:22;102300.97;;;13.68;64.01
65659;BME280;60181;53.258;6.932;2023-02-02T17:36:26;102299.66;;;13.68;64.05
65659;BME280;60181;53.258;6.932;2023-02-02T17:40:30;102297.80;;;13.69;64.03
65659;BME280;60181;53.258;6.932;2023-02-02T17:44:34;102296.39;;;13.69;64.05
65659;BME280;60181;53.258;6.932;2023-02-02T17:48:38;102294.31;;;13.73;64.01
65659;BME280;60181;53.258;6.932;2023-02-02T17:52:42;102290.94;;;13.77;63.96
65659;BME280;60181;53.258;6.932;2023-02-02T17:56:46;102286.94;;;13.78;64.15
65659;BME280;60181;53.258;6.932;2023-02-02T18:00:51;102282.42;;;13.78;64.34
65659;BME280;60181;53.258;6.932;2023-02-02T18:04:54;102278.13;;;13.78;64.38
65659;BME280;60181;53.258;6.932;2023-02-02T18:08:58;102274.88;;;13.77;64.43
65659;BME280;60181;53.258;6.932;2023-02-02T18:13:02;102271.79;;;13.76;64.45
65659;BME280;60181;53.258;6.932;2023-02-02T18:17:06;102270.06;;;13.75;64.44
65659;BME280;60181;53.258;6.932;2023-02-02T18:21:10;102270.34;;;13.75;64.44
65659;BME280;60181;53.258;6.932;2023-02-02T18:25:14;102271.49;;;13.74;64.45
65659;BME280;60181;53.258;6.932;2023-02-02T18:29:18;102273.85;;;13.74;64.45
65659;BME280;60181;53.258;6.932;2023-02-02T18:33:22;102275.73;;;13.74;64.44
65659;BME280;60181;53.258;6.932;2023-02-02T18:37:26;102275.16;;;13.73;64.44
65659;BME280;60181;53.258;6.932;2023-02-02T18:41:30;102274.83;;;13.73;64.41
65659;BME280;60181;53.258;6.932;2023-02-02T18:45:34;102272.11;;;13.73;64.42
65659;BME280;60181;53.258;6.932;2023-02-02T18:49:38;102269.97;;;13.73;64.40
65659;BME280;60181;53.258;6.932;2023-02-02T18:53:43;102267.33;;;13.73;64.38
65659;BME280;60181;53.258;6.932;2023-02-02T18:57:46;102264.78;;;13.73;64.41
65659;BME280;60181;53.258;6.932;2023-02-02T19:01:50;102261.33;;;13.73;64.42
65659;BME280;60181;53.258;6.932;2023-02-02T19:05:54;102257.05;;;13.73;64.39
65659;BME280;60181;53.258;6.932;2023-02-02T19:09:58;102253.83;;;13.74;64.43
65659;BME280;60181;53.258;6.932;2023-02-02T19:14:04;102251.03;;;13.74;64.42
65659;BME280;60181;53.258;6.932;2023-02-02T19:18:13;102248.24;;;13.74;64.42
65659;BME280;60181;53.258;6.932;2023-02-02T19:22:20;102244.94;;;13.74;64.44
65659;BME280;60181;53.258;6.932;2023-02-02T19:26:19;102241.82;;;13.74;64.44
65659;BME280;60181;53.258;6.932;2023-02-02T19:30:19;102238.84;;;13.74;64.46
65659;BME280;60181;53.258;6.932;2023-02-02T19:34:22;102238.28;;;13.74;64.44
65659;BME280;60181;53.258;6.932;2023-02-02T19:38:27;102237.23;;;13.74;64.46
65659;BME280;60181;53.258;6.932;2023-02-02T19:42:30;102235.92;;;13.74;64.50
65659;BME280;60181;53.258;6.932;2023-02-02T19:46:34;102235.85;;;13.74;64.50
65659;BME280;60181;53.258;6.932;2023-02-02T19:50:38;102235.35;;;13.74;64.46
65659;BME280;60181;53.258;6.932;2023-02-02T19:54:42;102234.69;;;13.74;64.51
65659;BME280;60181;53.258;6.932;2023-02-02T19:58:46;102235.51;;;13.74;64.52
65659;BME280;60181;53.258;6.932;2023-02-02T20:03:03;102234.85;;;13.74;64.52
65659;BME280;60181;53.258;6.932;2023-02-02T20:06:54;102235.92;;;13.75;64.52
65659;BME280;60181;53.258;6.932;2023-02-02T20:10:59;102236.10;;;13.75;64.53
65659;BME280;60181;53.258;6.932;2023-02-02T20:15:10;102237.16;;;13.75;64.51
65659;BME280;60181;53.258;6.932;2023-02-02T20:19:12;102238.15;;;13.75;64.53
65659;BME280;60181;53.258;6.932;2023-02-02T20:27:18;102236.42;;;13.79;64.54
65659;BME280;60181;53.258;6.932;2023-02-02T20:31:19;102235.55;;;13.85;64.45
65659;BME280;60181;53.258;6.932;2023-02-02T20:39:37;102234.94;;;13.88;64.84
65659;BME280;60181;53.258;6.932;2023-02-02T20:43:30;102231.23;;;13.87;64.96
65659;BME280;60181;53.258;6.932;2023-02-02T20:47:34;102228.23;;;13.87;65.01
65659;BME280;60181;53.258;6.932;2023-02-02T20:51:38;102224.27;;;13.86;65.02
65659;BME280;60181;53.258;6.932;2023-02-02T20:55:42;102221.10;;;13.86;65.03
65659;BME280;60181;53.258;6.932;2023-02-02T20:59:46;102221.42;;;13.85;65.02
65659;BME280;60181;53.258;6.932;2023-02-02T21:03:50;102223.41;;;13.85;65.00
65659;BME280;60181;53.258;6.932;2023-02-02T21:07:54;102223.53;;;13.85;65.01
65659;BME280;60181;53.258;6.932;2023-02-02T21:11:58;102221.89;;;13.85;65.01
65659;BME280;60181;53.258;6.932;2023-02-02T21:16:02;102217.77;;;13.84;65.01
65659;BME280;60181;53.258;6.932;2023-02-02T21:20:06;102214.47;;;13.84;65.01
65659;BME280;60181;53.258;6.932;2023-02-02T21:24:10;102211.01;;;13.84;65.01
65659;BME280;60181;53.258;6.932;2023-02-02T21:28:14;102211.58;;;13.84;65.01
65659;BME280;60181;53.258;6.932;2023-02-02T21:32:18;102207.47;;;13.84;65.00
65659;BME280;60181;53.258;6.932;2023-02-02T21:40:27;102199.31;;;13.87;64.32
65659;BME280;60181;53.258;6.932;2023-02-02T21:44:30;102198.16;;;13.85;64.40
65659;BME280;60181;53.258;6.932;2023-02-02T21:48:34;102200.06;;;13.83;64.36
65659;BME280;60181;53.258;6.932;2023-02-02T21:52:38;102203.55;;;13.81;64.39
65659;BME280;60181;53.258;6.932;2023-02-02T21:56:42;102207.89;;;13.78;64.38
65659;BME280;60181;53.258;6.932;2023-02-02T22:00:46;102208.42;;;13.77;64.48
65659;BME280;60181;53.258;6.932;2023-02-02T22:04:50;102206.44;;;13.75;64.35
65659;BME280;60181;53.258;6.932;2023-02-02T22:09:11;102201.70;;;13.73;64.39
65659;BME280;60181;53.258;6.932;2023-02-02T22:12:58;102196.26;;;13.71;64.34
65659;BME280;60181;53.258;6.932;2023-02-02T22:17:09;102190.46;;;13.70;64.29
65659;BME280;60181;53.258;6.932;2023-02-02T22:21:06;102181.53;;;13.69;64.17
65659;BME280;60181;53.258;6.932;2023-02-02T22:29:15;102162.18;;;13.66;64.07
65659;BME280;60181;53.258;6.932;2023-02-02T22:33:18;102152.84;;;13.66;64.01
65659;BME280;60181;53.258;6.932;2023-02-02T22:37:22;102144.07;;;13.65;64.04
65659;BME280;60181;53.258;6.932;2023-02-02T22:41:26;102136.33;;;13.64;63.92
65659;BME280;60181;53.258;6.932;2023-02-02T22:45:30;102128.96;;;13.63;65.52
65659;BME280;60181;53.258;6.932;2023-02-02T22:49:34;102123.99;;;13.63;64.04
65659;BME280;60181;53.258;6.932;2023-02-02T22:53:38;102118.96;;;13.63;63.86
65659;BME280;60181;53.258;6.932;2023-02-02T22:57:42;102117.64;;;13.63;64.04
65659;BME280;60181;53.258;6.932;2023-02-02T23:01:46;102114.84;;;13.63;64.56
65659;BME280;60181;53.258;6.932;2023-02-02T23:05:50;102113.61;;;13.63;64.55
65659;BME280;60181;53.258;6.932;2023-02-02T23:09:54;102111.14;;;13.63;64.95
65659;BME280;60181;53.258;6.932;2023-02-02T23:13:58;102108.84;;;13.63;64.90
65659;BME280;60181;53.258;6.932;2023-02-02T23:18:02;102107.43;;;13.63;63.61